Time;durP1;ratioP1;P1;durP2;ratioP2;P2;SDS_P1;SDS_P2;PMS_P1;PMS_P2;Temp;Humidity;BMP_temperature;BMP_pressure;BME280_temperature;BME280_humidity;BME280_pressure;Samples;Min_cycle;Max_cycle;Signal;HPM_P1;HPM_P2
2022/09/20 00:01:09;;;;;;;1.83;1.30;;;;;;;11.91;51.77;94979.44;5008461;28;20207;-70
2022/09/20 00:03:37;;;;;;;1.50;1.40;;;;;;;11.72;52.24;94984.97;5007604;28;20209;-70
2022/09/20 00:06:04;;;;;;;1.30;1.20;;;;;;;11.65;52.65;94992.66;5014352;28;20668;-72
2022/09/20 00:08:30;;;;;;;1.13;1.13;;;;;;;11.76;52.03;94992.41;5011221;28;20330;-70
2022/09/20 00:11:03;;;;;;;1.10;1.10;;;;;;;11.64;52.09;94991.03;5014785;28;20222;-72
2022/09/20 00:13:29;;;;;;;1.33;1.23;;;;;;;11.67;52.08;94993.34;4998014;28;20281;-71
2022/09/20 00:15:55;;;;;;;1.40;1.30;;;;;;;11.67;52.09;95001.22;5008242;28;20288;-71
2022/09/20 00:18:21;;;;;;;1.17;1.10;;;;;;;11.62;51.85;94985.06;5008195;28;20203;-70
2022/09/20 00:20:48;;;;;;;1.40;1.30;;;;;;;11.67;51.71;94995.97;5002214;28;20207;-71
2022/09/20 00:23:13;;;;;;;1.45;1.35;;;;;;;11.62;52.16;94992.97;5006773;28;20218;-70
2022/09/20 00:25:39;;;;;;;1.20;1.15;;;;;;;11.50;51.95;94997.72;5013010;28;20289;-71
2022/09/20 00:28:05;;;;;;;1.30;1.20;;;;;;;11.59;51.80;95007.28;5009986;28;20214;-69
2022/09/20 00:30:34;;;;;;;1.42;1.33;;;;;;;11.60;51.88;94998.41;5012466;28;20215;-71
2022/09/20 00:33:00;;;;;;;1.20;1.20;;;;;;;11.61;51.99;94993.97;5013764;28;20829;-70
2022/09/20 00:35:26;;;;;;;1.27;1.27;;;;;;;11.49;52.39;94993.41;5013838;28;20242;-71
2022/09/20 00:37:51;;;;;;;1.90;1.40;;;;;;;11.48;52.20;94989.97;5010530;28;20253;-71
2022/09/20 00:40:19;;;;;;;1.50;1.40;;;;;;;11.42;52.16;94992.41;5016228;28;20199;-69
2022/09/20 00:42:46;;;;;;;1.38;1.27;;;;;;;11.52;52.02;94994.91;5013033;28;20203;-71
2022/09/20 00:45:25;;;;;;;1.70;1.20;;;;;;;11.45;51.96;94995.53;5010980;28;20207;-68
2022/09/20 00:48:02;;;;;;;1.17;1.10;;;;;;;11.50;51.62;94986.38;5007515;28;20266;-70
2022/09/20 00:50:40;;;;;;;1.38;1.25;;;;;;;11.36;52.36;94990.38;5010937;28;20210;-70
2022/09/20 00:53:11;;;;;;;1.10;1.00;;;;;;;11.38;51.98;94986.63;5009917;28;20267;-71
2022/09/20 00:55:41;;;;;;;1.77;1.10;;;;;;;11.23;52.30;94991.66;5013207;28;20213;-68
2022/09/20 00:58:07;;;;;;;1.27;1.17;;;;;;;11.29;52.16;95000.72;5011389;28;20211;-70
2022/09/20 01:00:33;;;;;;;1.25;1.20;;;;;;;11.27;52.34;94994.78;5005030;28;20301;-69
2022/09/20 01:03:05;;;;;;;1.00;1.00;;;;;;;11.18;52.36;94985.22;5013366;28;20310;-69
2022/09/20 01:05:31;;;;;;;0.80;0.80;;;;;;;11.18;52.01;94983.41;5014177;28;20199;-71
2022/09/20 01:07:57;;;;;;;1.88;1.20;;;;;;;11.27;51.80;94987.72;5007640;28;20258;-70
2022/09/20 01:10:22;;;;;;;1.00;1.00;;;;;;;11.25;51.68;94994.13;5011057;28;20703;-71
2022/09/20 01:12:50;;;;;;;1.40;1.10;;;;;;;11.34;50.96;94992.38;4995413;28;20573;-71
2022/09/20 01:15:17;;;;;;;1.00;1.00;;;;;;;11.28;50.61;94991.19;5000438;28;20223;-71
2022/09/20 01:17:48;;;;;;;1.23;1.20;;;;;;;11.30;50.92;94991.03;5011516;28;20207;-71
2022/09/20 01:20:28;;;;;;;0.93;0.93;;;;;;;11.32;50.76;94995.16;5010314;28;20203;-69
2022/09/20 01:23:27;;;;;;;1.30;1.20;;;;;;;11.35;50.62;94994.00;5008135;28;20223;-69
2022/09/20 01:26:23;;;;;;;1.20;1.20;;;;;;;11.40;50.19;94989.94;5005104;28;20221;-68
2022/09/20 01:28:57;;;;;;;1.17;1.10;;;;;;;11.31;50.27;94990.88;5003156;28;20227;-69
2022/09/20 01:31:25;;;;;;;1.40;1.30;;;;;;;11.27;49.94;94979.81;5005158;28;20261;-70
2022/09/20 01:33:57;;;;;;;1.30;1.20;;;;;;;11.13;50.08;94976.97;4998942;28;20235;-70
2022/09/20 01:36:45;;;;;;;2.47;1.30;;;;;;;11.13;50.42;94974.31;5009542;28;20587;-69
2022/09/20 01:39:34;;;;;;;1.50;1.40;;;;;;;11.13;49.97;94982.22;5015133;28;20222;-69
2022/09/20 01:42:13;;;;;;;1.30;1.20;;;;;;;11.09;50.26;94979.06;5004565;28;20228;-68
2022/09/20 01:44:53;;;;;;;0.98;0.98;;;;;;;11.10;50.24;94986.00;5004470;28;20899;-69
2022/09/20 01:47:31;;;;;;;1.13;1.13;;;;;;;11.05;50.65;94988.25;5010292;28;20218;-70
2022/09/20 01:50:18;;;;;;;1.40;1.30;;;;;;;10.85;51.21;94986.81;5016446;28;20239;-71
2022/09/20 01:53:11;;;;;;;1.20;1.10;;;;;;;10.90;51.33;94995.06;4998887;28;20230;-70
2022/09/20 01:55:52;;;;;;;1.25;1.15;;;;;;;10.91;51.23;94996.72;5001894;28;20227;-68
2022/09/20 01:58:50;;;;;;;1.20;1.08;;;;;;;10.91;51.47;94992.28;5007996;28;20215;-70
2022/09/20 02:01:34;;;;;;;1.23;1.13;;;;;;;10.85;51.41;94992.06;5001874;28;20215;-70
2022/09/20 02:04:19;;;;;;;1.52;1.20;;;;;;;10.81;51.66;94991.56;5002904;28;20223;-70
2022/09/20 02:06:52;;;;;;;1.40;1.30;;;;;;;10.73;52.21;94980.97;5005923;28;20296;-70
2022/09/20 02:09:44;;;;;;;1.27;1.17;;;;;;;10.80;51.84;94968.88;5015813;28;20907;-71
2022/09/20 02:12:31;;;;;;;2.03;1.33;;;;;;;10.71;52.33;94975.03;5004280;28;20219;-71
2022/09/20 02:15:22;;;;;;;1.40;1.30;;;;;;;10.66;52.72;94966.78;5003870;28;20214;-71
2022/09/20 02:18:24;;;;;;;1.30;1.20;;;;;;;10.66;52.61;94972.84;4998055;28;20210;-70
2022/09/20 02:21:27;;;;;;;1.42;1.33;;;;;;;10.59;52.81;94972.66;4996622;28;20226;-70
2022/09/20 02:23:55;;;;;;;1.48;1.38;;;;;;;10.58;53.21;94964.91;5002258;28;20309;-70
2022/09/20 02:26:54;;;;;;;1.60;1.50;;;;;;;10.44;53.61;94968.09;5009485;28;20247;-70
2022/09/20 02:29:29;;;;;;;1.80;1.70;;;;;;;10.58;53.17;94970.16;4999452;28;20273;-71
2022/09/20 02:32:17;;;;;;;1.55;1.45;;;;;;;10.65;52.92;94970.41;4996655;28;20261;-70
2022/09/20 02:35:06;;;;;;;1.65;1.55;;;;;;;10.56;52.99;94972.97;5010306;28;20313;-70
2022/09/20 02:37:50;;;;;;;1.48;1.38;;;;;;;10.51;52.99;94980.50;5014783;28;20226;-70
2022/09/20 02:40:41;;;;;;;1.40;1.30;;;;;;;10.58;52.78;94978.06;5011587;28;20251;-70
2022/09/20 02:44:04;;;;;;;1.73;1.63;;;;;;;10.53;52.92;94985.56;5000762;28;20222;-70
2022/09/20 02:46:54;;;;;;;1.67;1.58;;;;;;;10.34;53.82;94978.69;4958619;28;20227;-71
2022/09/20 02:49:52;;;;;;;1.57;1.47;;;;;;;10.28;54.56;94987.19;4945174;28;20283;-70
2022/09/20 02:52:41;;;;;;;1.70;1.60;;;;;;;10.21;54.57;94983.47;4947802;28;20321;-70
2022/09/20 02:55:37;;;;;;;1.67;1.58;;;;;;;10.21;55.45;94999.22;4965315;28;20224;-70
2022/09/20 02:58:26;;;;;;;1.57;1.47;;;;;;;10.07;56.19;94995.31;4956797;28;20223;-69
2022/09/20 03:01:17;;;;;;;1.70;1.60;;;;;;;10.01;56.75;94994.13;4950988;28;20244;-69
2022/09/20 03:03:53;;;;;;;1.60;1.50;;;;;;;9.89;57.53;94997.91;4945864;28;20324;-70
2022/09/20 03:06:49;;;;;;;1.93;1.83;;;;;;;9.93;57.55;95002.75;4961284;28;20228;-69
2022/09/20 03:09:55;;;;;;;1.90;1.80;;;;;;;9.89;57.71;94995.28;4973366;28;20873;-69
2022/09/20 03:12:51;;;;;;;1.98;1.50;;;;;;;9.92;57.21;94995.84;4872941;29;20310;-69
2022/09/20 03:15:37;;;;;;;1.97;1.77;;;;;;;10.00;57.15;94996.91;4878400;29;20268;-69
2022/09/20 03:18:08;;;;;;;1.98;1.80;;;;;;;9.87;57.17;94987.56;4912647;29;20300;-70
2022/09/20 03:20:55;;;;;;;2.08;1.98;;;;;;;9.93;56.88;95005.38;4926523;29;20221;-67
2022/09/20 03:23:39;;;;;;;2.15;1.98;;;;;;;9.75;57.74;95003.69;4907745;29;20210;-70
2022/09/20 03:26:35;;;;;;;1.80;1.70;;;;;;;9.92;56.99;95008.16;4907729;29;20289;-70
2022/09/20 03:29:06;;;;;;;1.85;1.60;;;;;;;9.95;56.62;95015.75;4909120;29;20305;-69
2022/09/20 03:31:56;;;;;;;2.05;1.70;;;;;;;9.89;56.73;95021.56;4929450;29;20281;-68
2022/09/20 03:34:39;;;;;;;1.90;1.77;;;;;;;9.71;57.26;95016.28;4897174;29;20243;-69
2022/09/20 03:37:38;;;;;;;2.10;2.00;;;;;;;9.75;57.20;95009.75;4896938;29;20297;-69
2022/09/20 03:40:16;;;;;;;1.83;1.73;;;;;;;9.72;57.16;95016.13;4889688;29;20289;-68
2022/09/20 03:42:51;;;;;;;1.60;1.50;;;;;;;9.83;56.67;95009.03;4892494;29;20222;-68
2022/09/20 03:45:31;;;;;;;1.50;1.40;;;;;;;9.72;57.30;95018.75;4895667;29;20325;-68
2022/09/20 03:48:31;;;;;;;2.50;1.80;;;;;;;9.63;57.58;95019.63;4939893;28;20326;-69
2022/09/20 03:51:03;;;;;;;1.38;1.33;;;;;;;9.79;56.71;95018.19;4959988;28;20232;-69
2022/09/20 03:53:54;;;;;;;1.70;1.60;;;;;;;9.63;57.39;95010.94;4966994;28;20251;-68
2022/09/20 03:56:25;;;;;;;1.60;1.50;;;;;;;9.67;56.96;95009.66;4968684;28;20242;-70
2022/09/20 03:58:53;;;;;;;1.63;1.48;;;;;;;9.75;56.90;95007.13;4965432;28;20255;-70
2022/09/20 04:01:37;;;;;;;2.28;1.75;;;;;;;9.77;56.42;95012.25;4970332;28;20228;-69
2022/09/20 04:04:25;;;;;;;1.60;1.50;;;;;;;9.69;56.66;95013.78;4974812;28;20720;-69
2022/09/20 04:07:15;;;;;;;2.50;2.30;;;;;;;9.64;56.81;95010.78;4970791;28;20307;-69
2022/09/20 04:09:41;;;;;;;2.30;1.90;;;;;;;9.55;57.06;95019.53;4968018;28;20237;-68
2022/09/20 04:12:48;;;;;;;1.80;1.70;;;;;;;9.61;56.71;95026.81;4971085;28;20235;-68
2022/09/20 04:15:32;;;;;;;1.73;1.63;;;;;;;9.70;56.50;95027.75;4962579;28;20220;-70
2022/09/20 04:18:23;;;;;;;2.03;1.92;;;;;;;9.72;56.51;95031.88;4967427;28;20228;-69
2022/09/20 04:20:59;;;;;;;2.47;2.28;;;;;;;9.77;56.37;95043.75;4971748;28;20296;-69
2022/09/20 04:23:52;;;;;;;2.05;1.88;;;;;;;9.71;56.23;95047.78;4962359;28;20204;-69
2022/09/20 04:26:44;;;;;;;1.77;1.67;;;;;;;9.74;56.09;95044.88;4960547;28;20264;-69
2022/09/20 04:29:40;;;;;;;1.50;1.40;;;;;;;9.70;56.39;95041.72;4964627;28;20232;-69
2022/09/20 04:32:29;;;;;;;1.95;1.80;;;;;;;9.59;57.19;95041.88;4962487;28;20647;-69
2022/09/20 04:37:46;;;;;;;2.50;1.67;;;;;;;9.72;57.12;95038.94;5011044;28;20241;-70
2022/09/20 04:40:22;;;;;;;2.00;1.80;;;;;;;9.69;57.33;95047.94;5000459;28;20354;-70
2022/09/20 04:43:10;;;;;;;1.80;1.70;;;;;;;9.69;57.41;95058.44;5000075;28;20223;-65
2022/09/20 04:45:57;;;;;;;2.15;1.95;;;;;;;9.54;57.99;95056.44;5005046;28;20230;-69
2022/09/20 04:48:49;;;;;;;3.70;2.00;;;;;;;9.68;57.47;95058.59;4996704;28;20231;-69
2022/09/20 04:51:33;;;;;;;3.72;1.88;;;;;;;9.75;57.41;95066.69;5003027;28;20222;-69
2022/09/20 04:54:24;;;;;;;2.80;1.58;;;;;;;9.65;57.30;95057.09;5000980;28;20234;-69
2022/09/20 04:57:28;;;;;;;2.08;1.80;;;;;;;9.58;57.21;95061.25;5005754;28;20257;-70
2022/09/20 05:00:17;;;;;;;2.45;1.90;;;;;;;9.77;57.07;95067.38;4998952;28;20227;-70
2022/09/20 05:03:05;;;;;;;1.63;1.52;;;;;;;9.76;56.87;95057.88;4950114;28;20228;-70
2022/09/20 05:05:58;;;;;;;2.22;1.85;;;;;;;9.90;56.60;95055.56;4876172;29;20580;-70
2022/09/20 05:08:42;;;;;;;1.75;1.65;;;;;;;9.94;56.25;95063.97;4877426;29;20233;-69
2022/09/20 05:11:17;;;;;;;2.38;1.98;;;;;;;10.08;55.82;95058.25;4873106;29;20321;-70
2022/09/20 05:13:56;;;;;;;1.60;1.50;;;;;;;10.02;56.19;95066.69;4896860;29;20234;-70
2022/09/20 05:16:49;;;;;;;2.70;2.05;;;;;;;10.05;55.77;95066.41;4881922;29;20234;-69
2022/09/20 05:19:32;;;;;;;2.72;1.90;;;;;;;10.02;56.30;95076.38;4891570;29;20237;-70
2022/09/20 05:22:05;;;;;;;2.30;2.10;;;;;;;10.08;56.22;95078.44;4893359;29;20241;-68
2022/09/20 05:24:41;;;;;;;2.20;2.00;;;;;;;10.06;56.51;95075.94;4894107;29;20321;-70
2022/09/20 05:27:25;;;;;;;1.90;1.80;;;;;;;10.19;56.19;95083.47;4898896;29;20230;-68
2022/09/20 05:30:09;;;;;;;1.75;1.65;;;;;;;10.19;56.19;95078.22;4903871;29;20458;-70
2022/09/20 05:32:40;;;;;;;1.80;1.63;;;;;;;10.28;55.58;95074.72;4895113;29;20250;-68
2022/09/20 05:35:25;;;;;;;1.70;1.60;;;;;;;10.34;55.80;95068.91;4892535;29;20247;-70
2022/09/20 05:38:03;;;;;;;1.77;1.67;;;;;;;10.27;55.94;95080.97;4898971;29;20284;-68
2022/09/20 05:40:45;;;;;;;1.83;1.73;;;;;;;10.31;55.95;95076.22;4907449;29;20229;-69
2022/09/20 05:43:16;;;;;;;2.30;2.08;;;;;;;10.40;55.57;95077.13;4966158;28;20242;-67
2022/09/20 05:45:47;;;;;;;2.80;1.80;;;;;;;10.38;55.88;95077.31;4995992;28;20260;-67
2022/09/20 05:48:18;;;;;;;2.33;1.90;;;;;;;10.42;55.57;95078.63;4992557;28;20231;-68
2022/09/20 05:50:46;;;;;;;2.20;1.92;;;;;;;10.47;55.51;95071.13;4980276;28;20230;-67
2022/09/20 05:53:24;;;;;;;1.60;1.50;;;;;;;10.62;55.43;95078.53;4992558;28;20220;-68
2022/09/20 05:56:26;;;;;;;1.70;1.60;;;;;;;10.43;55.55;95072.44;4984524;28;20239;-68
2022/09/20 05:59:16;;;;;;;1.95;1.85;;;;;;;10.50;55.16;95073.47;4999861;28;20241;-68
2022/09/20 06:01:56;;;;;;;3.50;2.45;;;;;;;10.57;55.31;95078.97;4987704;28;20224;-68
2022/09/20 06:04:36;;;;;;;1.60;1.40;;;;;;;10.75;54.14;95085.06;4993771;28;20241;-67
2022/09/20 06:07:38;;;;;;;2.00;1.67;;;;;;;10.74;53.72;95082.56;4989841;28;20227;-68
2022/09/20 06:10:31;;;;;;;1.77;1.58;;;;;;;10.77;53.92;95083.09;4986464;28;20325;-67
2022/09/20 06:13:13;;;;;;;1.92;1.83;;;;;;;10.84;53.78;95074.59;4979267;28;20239;-69
2022/09/20 06:15:54;;;;;;;2.55;1.98;;;;;;;10.99;53.73;95088.88;4981318;28;20269;-67
2022/09/20 06:18:40;;;;;;;3.38;1.75;;;;;;;11.12;53.53;95078.78;4988485;28;20261;-67
2022/09/20 06:21:35;;;;;;;1.50;1.40;;;;;;;11.12;52.89;95076.13;4986761;28;20287;-68
2022/09/20 06:24:03;;;;;;;2.53;2.00;;;;;;;11.13;52.98;95080.41;4982964;28;20238;-67
2022/09/20 06:26:35;;;;;;;1.70;1.60;;;;;;;11.24;52.86;95084.59;4989471;28;20215;-67
2022/09/20 06:29:10;;;;;;;2.00;1.80;;;;;;;11.35;52.57;95079.06;4961910;28;20246;-66
2022/09/20 06:31:36;;;;;;;2.63;1.90;;;;;;;11.29;53.23;95074.44;4968653;28;20262;-67
2022/09/20 06:34:04;;;;;;;2.40;1.90;;;;;;;11.43;52.78;95079.13;4959056;28;20287;-67
2022/09/20 06:42:22;;;;;;;1.92;1.77;;;;;;;11.58;52.39;95079.38;4969266;28;20231;-68
2022/09/20 06:44:48;;;;;;;3.42;1.67;;;;;;;11.61;52.27;95072.97;4965047;28;20212;-68
2022/09/20 06:47:14;;;;;;;1.65;1.50;;;;;;;11.81;51.70;95082.28;4968475;28;20244;-66
2022/09/20 06:49:41;;;;;;;1.30;1.20;;;;;;;11.81;51.84;95077.00;4975484;28;20691;-68
2022/09/20 06:52:10;;;;;;;1.48;1.35;;;;;;;11.82;51.76;95080.50;4974322;28;20229;-67
2022/09/20 06:54:36;;;;;;;1.92;1.60;;;;;;;11.72;51.47;95070.06;4970939;28;20243;-66
2022/09/20 06:57:04;;;;;;;5.22;1.35;;;;;;;11.74;52.31;95089.19;4971251;28;20224;-67
2022/09/20 06:59:30;;;;;;;1.13;1.10;;;;;;;11.88;51.01;95087.78;4959041;28;20412;-67
2022/09/20 07:01:56;;;;;;;1.77;1.38;;;;;;;11.68;51.37;95081.88;4959631;28;20208;-67
2022/09/20 07:04:23;;;;;;;1.15;1.10;;;;;;;11.66;50.86;95089.97;4964776;28;20263;-68
2022/09/20 07:06:49;;;;;;;1.48;1.00;;;;;;;11.76;50.89;95091.66;4974241;28;20358;-69
2022/09/20 07:09:16;;;;;;;1.30;1.20;;;;;;;11.93;50.91;95092.59;4972529;28;20231;-68
2022/09/20 07:11:43;;;;;;;1.50;1.40;;;;;;;11.96;50.64;95094.91;4967710;28;20200;-68
2022/09/20 07:14:09;;;;;;;1.30;1.20;;;;;;;12.08;50.17;95086.56;4970696;28;20239;-66
2022/09/20 07:16:35;;;;;;;1.90;1.60;;;;;;;12.18;50.51;95099.59;4963780;28;20285;-67
2022/09/20 07:19:02;;;;;;;1.40;1.15;;;;;;;12.24;49.29;95091.06;4968208;28;20221;-68
2022/09/20 07:21:27;;;;;;;2.95;1.17;;;;;;;12.31;49.33;95101.78;4964105;28;20217;-68
2022/09/20 07:23:53;;;;;;;1.33;1.23;;;;;;;12.32;48.92;95088.47;4966042;28;20282;-69
2022/09/20 07:26:25;;;;;;;2.53;1.30;;;;;;;12.36;49.36;95084.50;4964873;28;20262;-67
2022/09/20 07:28:52;;;;;;;1.60;1.50;;;;;;;12.50;49.55;95088.31;4969591;28;20227;-68
2022/09/20 07:31:19;;;;;;;2.00;1.30;;;;;;;12.47;47.69;95088.66;4959135;28;20226;-67
2022/09/20 07:33:45;;;;;;;2.17;1.33;;;;;;;12.57;47.30;95089.34;4982388;28;20247;-67
2022/09/20 07:36:11;;;;;;;1.70;1.27;;;;;;;12.49;47.92;95089.31;5010305;28;20226;-68
2022/09/20 07:38:38;;;;;;;1.88;1.50;;;;;;;12.55;47.35;95088.66;4998244;28;20411;-67
2022/09/20 07:41:04;;;;;;;1.92;1.70;;;;;;;12.77;48.57;95103.03;4999692;28;20676;-66
2022/09/20 07:43:30;;;;;;;1.55;1.20;;;;;;;12.86;46.90;95095.16;5006398;28;20531;-64
2022/09/20 07:45:58;;;;;;;1.33;1.23;;;;;;;12.78;46.45;95096.78;5005404;28;20233;-68
2022/09/20 07:48:25;;;;;;;1.50;1.40;;;;;;;12.67;46.57;95085.72;5004542;28;20222;-67
2022/09/20 07:50:53;;;;;;;1.50;1.40;;;;;;;12.78;47.73;95088.06;5008811;28;20219;-69
2022/09/20 07:53:18;;;;;;;1.02;1.00;;;;;;;12.88;46.72;95087.88;4999354;28;20310;-69
2022/09/20 07:56:16;;;;;;;2.80;1.30;;;;;;;13.01;46.18;95088.22;5007090;28;20325;-68
2022/09/20 07:58:43;;;;;;;1.70;1.10;;;;;;;13.05;45.48;95084.25;5005048;28;20250;-71
2022/09/20 08:01:12;;;;;;;1.10;1.00;;;;;;;13.15;45.09;95087.56;4997010;28;20277;-68
2022/09/20 08:03:38;;;;;;;1.15;1.00;;;;;;;13.20;44.42;95077.34;5007042;28;20285;-67
2022/09/20 08:06:08;;;;;;;2.85;1.20;;;;;;;13.32;45.78;95084.94;4999429;28;20546;-70
2022/09/20 08:08:35;;;;;;;8.85;1.63;;;;;;;13.49;45.45;95081.28;5010022;28;20211;-70
2022/09/20 08:11:05;;;;;;;3.33;1.40;;;;;;;13.58;45.61;95074.16;5008296;28;20210;-69
2022/09/20 08:13:34;;;;;;;1.38;1.27;;;;;;;13.49;46.35;95080.44;5006990;28;20223;-68
2022/09/20 08:16:04;;;;;;;1.88;1.60;;;;;;;13.50;45.90;95076.81;5010978;28;20568;-68
2022/09/20 08:18:30;;;;;;;1.80;1.20;;;;;;;13.54;44.25;95075.50;5010299;28;20211;-68
2022/09/20 08:20:55;;;;;;;1.30;1.20;;;;;;;13.52;44.62;95069.53;5008170;28;20272;-68
2022/09/20 08:23:21;;;;;;;1.25;1.15;;;;;;;13.58;43.89;95074.16;5011983;28;20206;-69
2022/09/20 08:25:48;;;;;;;1.15;1.05;;;;;;;13.74;44.03;95070.63;5005713;28;20230;-70
2022/09/20 08:28:13;;;;;;;1.50;0.95;;;;;;;13.93;42.24;95083.47;5005351;28;20223;-70
2022/09/20 08:30:39;;;;;;;1.10;1.00;;;;;;;13.99;41.83;95074.88;5007478;28;20223;-69
2022/09/20 08:33:05;;;;;;;0.88;0.88;;;;;;;14.12;41.54;95072.50;5007785;28;20227;-69
2022/09/20 08:35:34;;;;;;;1.42;0.93;;;;;;;14.24;41.72;95064.16;5007779;28;20620;-70
2022/09/20 08:38:00;;;;;;;1.27;0.70;;;;;;;14.32;40.99;95051.72;5005030;28;20199;-70
2022/09/20 08:40:28;;;;;;;1.50;0.88;;;;;;;14.31;40.52;95049.25;5008839;28;20223;-70
2022/09/20 08:42:54;;;;;;;2.45;0.90;;;;;;;14.34;40.02;95057.66;5009415;28;20226;-70
2022/09/20 08:45:24;;;;;;;0.70;0.70;;;;;;;14.34;38.99;95056.84;5006905;28;20215;-70
2022/09/20 08:48:04;;;;;;;0.85;0.85;;;;;;;14.51;39.31;95057.56;5012338;28;20230;-69
2022/09/20 08:50:30;;;;;;;1.20;1.10;;;;;;;14.65;38.64;95050.72;5008956;28;20229;-69
2022/09/20 08:53:03;;;;;;;2.25;0.82;;;;;;;14.77;39.51;95051.97;5004991;28;20229;-70
2022/09/20 08:55:33;;;;;;;2.58;1.10;;;;;;;14.62;39.34;95051.06;5005676;28;20207;-68
2022/09/20 08:57:59;;;;;;;1.17;0.90;;;;;;;14.51;39.87;95050.47;5010787;28;20247;-69
2022/09/20 09:00:30;;;;;;;1.17;1.08;;;;;;;14.58;40.00;95050.63;5004082;28;20294;-69
2022/09/20 09:02:59;;;;;;;1.00;0.93;;;;;;;14.68;38.84;95042.47;5017839;28;20246;-69
2022/09/20 09:05:37;;;;;;;0.63;0.63;;;;;;;14.78;38.27;95041.22;5022235;28;20191;-69
2022/09/20 09:08:29;;;;;;;0.70;0.70;;;;;;;14.77;38.37;95050.16;5010112;28;20718;-69
2022/09/20 09:11:07;;;;;;;1.08;0.73;;;;;;;14.84;37.82;95044.16;4999931;28;20235;-69
2022/09/20 09:13:53;;;;;;;1.17;0.68;;;;;;;14.97;37.93;95041.75;5004137;28;20258;-69
2022/09/20 09:16:20;;;;;;;1.75;1.02;;;;;;;15.11;38.84;95029.53;5007971;28;20229;-69
2022/09/20 09:18:50;;;;;;;1.95;0.80;;;;;;;15.33;37.98;95025.19;5009471;28;20229;-70
2022/09/20 09:21:21;;;;;;;1.80;1.00;;;;;;;15.72;38.00;95024.97;4994404;28;20255;-70
2022/09/20 09:24:15;;;;;;;1.13;0.90;;;;;;;15.96;37.11;95033.63;5004656;28;20203;-70
2022/09/20 09:26:45;;;;;;;0.70;0.68;;;;;;;16.24;36.57;95023.97;5005024;28;20257;-71
2022/09/20 09:29:10;;;;;;;5.88;0.90;;;;;;;16.30;36.56;95019.75;5004020;28;20305;-70
2022/09/20 09:31:38;;;;;;;1.95;1.15;;;;;;;16.13;36.71;95013.88;5006798;28;20385;-69
2022/09/20 09:34:04;;;;;;;1.98;1.27;;;;;;;16.34;36.55;95012.28;5004318;28;20270;-70
2022/09/20 09:36:32;;;;;;;2.97;1.30;;;;;;;16.04;36.81;95015.00;4998403;28;20235;-70
2022/09/20 09:39:27;;;;;;;0.90;0.90;;;;;;;15.91;36.82;95014.81;5009059;28;20257;-70
2022/09/20 09:41:54;;;;;;;2.28;1.35;;;;;;;15.76;37.54;95007.69;5002906;28;20242;-71
2022/09/20 09:44:32;;;;;;;0.80;0.80;;;;;;;15.89;36.60;95001.72;5008347;28;20202;-71
2022/09/20 09:46:57;;;;;;;1.20;1.10;;;;;;;16.13;36.76;95005.09;5003568;28;20286;-72
2022/09/20 09:49:24;;;;;;;1.38;0.95;;;;;;;15.80;36.96;95019.56;5008121;28;20222;-72
2022/09/20 09:52:14;;;;;;;1.17;0.80;;;;;;;15.86;36.62;95013.53;5012342;28;20250;-72
2022/09/20 09:54:52;;;;;;;0.98;0.75;;;;;;;15.78;36.98;95008.31;5002213;28;20223;-71
2022/09/20 09:57:36;;;;;;;1.75;0.85;;;;;;;15.97;36.71;95012.25;5010536;28;20280;-72
2022/09/20 10:00:16;;;;;;;1.08;1.00;;;;;;;16.09;36.39;95005.47;5002891;28;20221;-72
2022/09/20 10:02:57;;;;;;;1.85;0.98;;;;;;;16.04;36.49;94999.88;5011489;28;20248;-70
2022/09/20 10:05:41;;;;;;;0.73;0.73;;;;;;;16.09;36.17;95001.97;4998700;28;20210;-70
2022/09/20 10:08:29;;;;;;;2.30;0.85;;;;;;;15.97;36.88;95008.78;5024666;28;20230;-70
2022/09/20 10:11:16;;;;;;;1.67;0.80;;;;;;;16.32;35.84;95002.66;5008204;28;20238;-71
2022/09/20 10:14:18;;;;;;;1.20;0.70;;;;;;;16.56;33.97;95000.66;5001396;28;20223;-71
2022/09/20 10:17:17;;;;;;;1.40;0.90;;;;;;;16.87;33.84;94992.41;5005848;28;20245;-70
2022/09/20 10:20:10;;;;;;;0.70;0.70;;;;;;;16.91;33.82;94990.19;4998578;28;20544;-67
2022/09/20 10:23:10;;;;;;;0.70;0.70;;;;;;;16.62;33.95;95001.72;5010150;28;20230;-65
2022/09/20 10:25:42;;;;;;;0.60;0.60;;;;;;;16.29;34.46;95003.03;5004734;28;20227;-67
2022/09/20 10:28:47;;;;;;;0.70;0.70;;;;;;;16.28;34.94;94998.75;5008526;28;20226;-70
2022/09/20 10:31:24;;;;;;;0.80;0.80;;;;;;;16.28;34.99;95003.22;5002317;28;20250;-69
2022/09/20 10:34:05;;;;;;;1.25;1.10;;;;;;;16.08;35.44;94995.84;4993412;28;20247;-69
2022/09/20 10:36:54;;;;;;;1.27;0.98;;;;;;;16.71;34.73;94996.09;5002092;28;20227;-69
2022/09/20 10:39:33;;;;;;;0.88;0.88;;;;;;;17.29;32.96;94977.38;5011443;28;20223;-72
2022/09/20 10:45:09;;;;;;;0.70;0.70;;;;;;;17.24;32.48;94989.59;5008445;28;20236;-69
2022/09/20 10:47:54;;;;;;;0.68;0.68;;;;;;;16.85;32.74;94996.25;4994685;28;20286;-68
2022/09/20 10:50:51;;;;;;;1.02;0.80;;;;;;;16.71;33.66;94990.81;4997583;28;20282;-70
2022/09/20 10:53:38;;;;;;;1.20;0.95;;;;;;;16.92;33.27;94991.81;5017891;28;20310;-71
2022/09/20 10:56:09;;;;;;;1.38;0.93;;;;;;;17.26;34.45;94995.56;5007054;28;20254;-70
2022/09/20 10:58:40;;;;;;;0.90;0.90;;;;;;;16.88;33.14;94994.03;5003465;28;20265;-69
2022/09/20 11:01:21;;;;;;;2.15;1.10;;;;;;;16.98;32.63;94986.56;5002416;28;20222;-70
2022/09/20 11:04:23;;;;;;;1.65;1.00;;;;;;;17.41;31.95;95004.25;5000108;28;20222;-70
2022/09/20 11:06:58;;;;;;;1.27;0.90;;;;;;;17.61;31.51;94991.06;5008439;28;20296;-72
2022/09/20 11:09:28;;;;;;;0.80;0.80;;;;;;;17.67;31.33;94985.00;5002090;28;20226;-70
2022/09/20 11:12:25;;;;;;;0.98;0.88;;;;;;;17.65;31.55;94979.03;5008547;28;20214;-70
2022/09/20 11:15:18;;;;;;;0.98;0.88;;;;;;;17.36;32.52;94966.81;5006164;28;20722;-72
2022/09/20 11:18:02;;;;;;;0.80;0.80;;;;;;;17.37;31.36;94973.75;5012811;28;20199;-74
2022/09/20 11:20:46;;;;;;;1.63;1.10;;;;;;;17.34;31.42;94990.09;5000530;28;20301;-75
2022/09/20 11:23:18;;;;;;;1.88;1.00;;;;;;;17.41;31.02;94965.19;5005654;28;20231;-74
2022/09/20 11:26:03;;;;;;;2.28;1.00;;;;;;;17.36;31.62;94966.81;5013783;28;20219;-73
2022/09/20 11:28:41;;;;;;;0.80;0.80;;;;;;;17.42;31.58;94960.69;4997787;28;20227;-73
2022/09/20 11:31:17;;;;;;;1.02;1.00;;;;;;;17.35;30.68;94963.34;5019354;28;20230;-72
2022/09/20 11:33:51;;;;;;;1.83;1.00;;;;;;;17.71;30.73;94964.16;5004766;28;20260;-71
2022/09/20 11:36:51;;;;;;;1.77;1.20;;;;;;;18.16;30.27;94959.25;5007819;28;20325;-71
2022/09/20 11:39:19;;;;;;;1.20;1.10;;;;;;;18.23;30.00;94963.56;4994115;28;20246;-71
2022/09/20 11:41:46;;;;;;;1.20;0.98;;;;;;;18.34;30.50;94948.84;5005043;28;20215;-71
2022/09/20 11:44:15;;;;;;;1.05;0.95;;;;;;;18.36;30.56;94962.75;5009157;28;20199;-72
2022/09/20 11:46:43;;;;;;;0.75;0.75;;;;;;;18.37;29.73;94955.63;5007239;28;20225;-67
2022/09/20 11:49:31;;;;;;;0.70;0.70;;;;;;;18.24;30.33;94959.06;5008652;28;20285;-67
2022/09/20 11:52:05;;;;;;;0.60;0.60;;;;;;;18.34;30.37;94956.84;4998452;28;20244;-68
2022/09/20 11:54:37;;;;;;;1.55;0.90;;;;;;;18.35;31.06;94953.16;5005910;28;20298;-67
2022/09/20 11:57:04;;;;;;;1.83;0.98;;;;;;;18.71;30.14;94946.63;5000454;28;20224;-68
2022/09/20 11:59:39;;;;;;;0.73;0.73;;;;;;;18.72;29.64;94938.47;5013029;28;20206;-68
2022/09/20 12:02:52;;;;;;;0.80;0.80;;;;;;;18.35;30.42;94945.16;4999417;28;20190;-68
2022/09/20 12:05:32;;;;;;;0.70;0.70;;;;;;;18.28;30.45;94946.97;4961711;28;20228;-66
2022/09/20 12:08:01;;;;;;;0.88;0.70;;;;;;;18.46;30.18;94939.25;4962479;28;20228;-67
2022/09/20 12:10:35;;;;;;;1.35;0.75;;;;;;;18.86;29.73;94941.16;4944015;28;20260;-67
2022/09/20 12:13:04;;;;;;;0.70;0.70;;;;;;;18.97;29.26;94939.72;4960539;28;20224;-68
2022/09/20 12:15:39;;;;;;;0.77;0.70;;;;;;;19.30;28.99;94935.19;4955148;28;20235;-67
2022/09/20 12:18:28;;;;;;;1.00;1.00;;;;;;;19.86;27.97;94938.34;4946688;28;20307;-67
2022/09/20 12:21:01;;;;;;;0.75;0.75;;;;;;;19.79;28.22;94944.53;4947335;28;20247;-67
2022/09/20 12:23:41;;;;;;;1.33;0.80;;;;;;;19.43;28.46;94933.50;4956340;28;20212;-67
2022/09/20 12:26:06;;;;;;;0.60;0.60;;;;;;;19.63;28.27;94920.94;4968023;28;20220;-69
2022/09/20 12:28:40;;;;;;;1.25;0.80;;;;;;;18.84;28.97;94929.88;4966296;28;20279;-66
2022/09/20 12:31:18;;;;;;;2.88;0.80;;;;;;;18.81;29.08;94931.09;4966909;28;20236;-67
2022/09/20 12:34:12;;;;;;;0.90;0.70;;;;;;;19.36;28.21;94930.88;4965770;28;20231;-68
2022/09/20 12:36:43;;;;;;;1.65;0.70;;;;;;;19.85;26.84;94926.03;4930733;29;20646;-68